sensor_id;sensor_type;location;lat;lon;timestamp;temperature;humidity
13944;DHT22;7044;53.286;8.534;2024-01-27T00:00:50;5.00;99.90
13944;DHT22;7044;53.286;8.534;2024-01-27T00:03:17;5.00;99.90
13944;DHT22;7044;53.286;8.534;2024-01-27T00:05:44;4.70;99.90
13944;DHT22;7044;53.286;8.534;2024-01-27T00:08:11;5.00;99.90
13944;DHT22;7044;53.286;8.534;2024-01-27T00:13:06;5.00;99.90
13944;DHT22;7044;53.286;8.534;2024-01-27T00:15:33;5.00;99.90
13944;DHT22;7044;53.286;8.534;2024-01-27T00:18:00;5.00;99.90
13944;DHT22;7044;53.286;8.534;2024-01-27T00:20:27;5.00;99.90
13944;DHT22;7044;53.286;8.534;2024-01-27T00:22:54;5.00;99.90
13944;DHT22;7044;53.286;8.534;2024-01-27T00:25:21;5.00;99.90
13944;DHT22;7044;53.286;8.534;2024-01-27T00:27:49;5.00;99.90
13944;DHT22;7044;53.286;8.534;2024-01-27T00:30:16;5.40;99.90
13944;DHT22;7044;53.286;8.534;2024-01-27T00:32:43;5.00;99.90
13944;DHT22;7044;53.286;8.534;2024-01-27T00:35:10;4.90;99.90
13944;DHT22;7044;53.286;8.534;2024-01-27T00:37:40;4.90;99.90
13944;DHT22;7044;53.286;8.534;2024-01-27T00:40:08;4.80;99.90
13944;DHT22;7044;53.286;8.534;2024-01-27T00:42:36;4.90;99.90
13944;DHT22;7044;53.286;8.534;2024-01-27T00:45:06;4.80;99.90
13944;DHT22;7044;53.286;8.534;2024-01-27T00:47:33;4.80;99.90
13944;DHT22;7044;53.286;8.534;2024-01-27T00:50:00;5.10;99.90
13944;DHT22;7044;53.286;8.534;2024-01-27T00:52:27;4.20;99.90
13944;DHT22;7044;53.286;8.534;2024-01-27T00:54:53;4.80;99.90
13944;DHT22;7044;53.286;8.534;2024-01-27T00:57:20;4.80;99.90
13944;DHT22;7044;53.286;8.534;2024-01-27T00:59:47;4.80;99.90
13944;DHT22;7044;53.286;8.534;2024-01-27T01:02:15;4.80;99.90
13944;DHT22;7044;53.286;8.534;2024-01-27T01:04:42;4.80;99.90
13944;DHT22;7044;53.286;8.534;2024-01-27T01:07:10;4.70;99.90
13944;DHT22;7044;53.286;8.534;2024-01-27T01:09:37;4.80;99.90
13944;DHT22;7044;53.286;8.534;2024-01-27T01:12:05;4.70;99.90
13944;DHT22;7044;53.286;8.534;2024-01-27T01:14:32;4.70;99.90
13944;DHT22;7044;53.286;8.534;2024-01-27T01:16:59;4.80;99.90
13944;DHT22;7044;53.286;8.534;2024-01-27T01:19:27;4.60;99.90
13944;DHT22;7044;53.286;8.534;2024-01-27T01:21:54;4.70;99.90
13944;DHT22;7044;53.286;8.534;2024-01-27T01:24:21;4.70;99.90
13944;DHT22;7044;53.286;8.534;2024-01-27T01:26:48;4.70;99.90
13944;DHT22;7044;53.286;8.534;2024-01-27T01:29:15;4.70;99.90
13944;DHT22;7044;53.286;8.534;2024-01-27T01:31:42;4.70;99.90
13944;DHT22;7044;53.286;8.534;2024-01-27T01:34:09;4.70;99.90
13944;DHT22;7044;53.286;8.534;2024-01-27T01:36:37;4.70;99.90
13944;DHT22;7044;53.286;8.534;2024-01-27T01:39:04;4.70;99.90
13944;DHT22;7044;53.286;8.534;2024-01-27T01:41:31;4.70;99.90
13944;DHT22;7044;53.286;8.534;2024-01-27T01:43:58;4.70;99.90
13944;DHT22;7044;53.286;8.534;2024-01-27T01:46:25;4.70;99.90
13944;DHT22;7044;53.286;8.534;2024-01-27T01:48:52;4.70;99.90
13944;DHT22;7044;53.286;8.534;2024-01-27T01:51:19;4.70;99.90
13944;DHT22;7044;53.286;8.534;2024-01-27T01:53:48;4.70;99.90
13944;DHT22;7044;53.286;8.534;2024-01-27T01:56:15;4.70;99.90
13944;DHT22;7044;53.286;8.534;2024-01-27T01:58:42;4.70;99.90
13944;DHT22;7044;53.286;8.534;2024-01-27T02:01:09;4.60;99.90
13944;DHT22;7044;53.286;8.534;2024-01-27T02:03:36;4.60;99.90
13944;DHT22;7044;53.286;8.534;2024-01-27T02:06:03;4.60;99.90
13944;DHT22;7044;53.286;8.534;2024-01-27T02:08:30;4.70;99.90
13944;DHT22;7044;53.286;8.534;2024-01-27T02:10:59;4.60;99.90
13944;DHT22;7044;53.286;8.534;2024-01-27T02:13:28;4.70;99.90
13944;DHT22;7044;53.286;8.534;2024-01-27T02:15:55;4.70;99.90
13944;DHT22;7044;53.286;8.534;2024-01-27T02:18:21;4.70;99.90
13944;DHT22;7044;53.286;8.534;2024-01-27T02:20:48;4.70;99.90
13944;DHT22;7044;53.286;8.534;2024-01-27T02:23:15;4.70;99.90
13944;DHT22;7044;53.286;8.534;2024-01-27T02:25:43;4.60;99.90
13944;DHT22;7044;53.286;8.534;2024-01-27T02:30:38;4.70;99.90
13944;DHT22;7044;53.286;8.534;2024-01-27T02:33:05;4.60;99.90
13944;DHT22;7044;53.286;8.534;2024-01-27T02:35:32;4.70;99.90
13944;DHT22;7044;53.286;8.534;2024-01-27T02:37:59;4.60;99.90
13944;DHT22;7044;53.286;8.534;2024-01-27T02:40:26;4.60;99.90
13944;DHT22;7044;53.286;8.534;2024-01-27T02:42:54;4.60;99.90
13944;DHT22;7044;53.286;8.534;2024-01-27T02:45:21;4.70;99.90
13944;DHT22;7044;53.286;8.534;2024-01-27T02:47:48;4.70;99.90
13944;DHT22;7044;53.286;8.534;2024-01-27T02:50:15;4.80;99.90
13944;DHT22;7044;53.286;8.534;2024-01-27T02:52:42;4.60;99.90
13944;DHT22;7044;53.286;8.534;2024-01-27T02:55:09;4.60;99.90
13944;DHT22;7044;53.286;8.534;2024-01-27T02:57:36;4.70;99.90
13944;DHT22;7044;53.286;8.534;2024-01-27T03:00:05;4.60;99.90
13944;DHT22;7044;53.286;8.534;2024-01-27T03:02:32;4.60;99.90
13944;DHT22;7044;53.286;8.534;2024-01-27T03:04:59;4.60;99.90
13944;DHT22;7044;53.286;8.534;2024-01-27T03:07:26;4.70;99.90
13944;DHT22;7044;53.286;8.534;2024-01-27T03:09:53;4.60;99.90
13944;DHT22;7044;53.286;8.534;2024-01-27T03:12:20;4.60;99.90
13944;DHT22;7044;53.286;8.534;2024-01-27T03:14:48;4.60;99.90
13944;DHT22;7044;53.286;8.534;2024-01-27T03:17:17;4.70;99.90
13944;DHT22;7044;53.286;8.534;2024-01-27T03:19:44;4.60;99.90
13944;DHT22;7044;53.286;8.534;2024-01-27T03:22:11;4.60;99.90
13944;DHT22;7044;53.286;8.534;2024-01-27T03:24:38;4.60;99.90
13944;DHT22;7044;53.286;8.534;2024-01-27T03:27:05;4.60;99.90
13944;DHT22;7044;53.286;8.534;2024-01-27T03:29:32;4.60;99.90
13944;DHT22;7044;53.286;8.534;2024-01-27T03:31:59;4.60;99.90
13944;DHT22;7044;53.286;8.534;2024-01-27T03:34:27;4.60;99.90
13944;DHT22;7044;53.286;8.534;2024-01-27T03:36:54;4.60;99.90
13944;DHT22;7044;53.286;8.534;2024-01-27T03:39:20;4.50;99.90
13944;DHT22;7044;53.286;8.534;2024-01-27T03:41:47;4.50;99.90
13944;DHT22;7044;53.286;8.534;2024-01-27T03:44:14;4.60;99.90
13944;DHT22;7044;53.286;8.534;2024-01-27T03:46:41;4.60;99.90
13944;DHT22;7044;53.286;8.534;2024-01-27T03:49:08;4.60;99.90
13944;DHT22;7044;53.286;8.534;2024-01-27T03:51:36;4.60;99.90
13944;DHT22;7044;53.286;8.534;2024-01-27T03:54:03;4.50;99.90
13944;DHT22;7044;53.286;8.534;2024-01-27T03:56:30;4.50;99.90
13944;DHT22;7044;53.286;8.534;2024-01-27T03:58:57;4.40;99.90
13944;DHT22;7044;53.286;8.534;2024-01-27T04:01:24;4.40;99.90
13944;DHT22;7044;53.286;8.534;2024-01-27T04:03:51;4.40;99.90
13944;DHT22;7044;53.286;8.534;2024-01-27T04:06:18;4.40;99.90
13944;DHT22;7044;53.286;8.534;2024-01-27T04:08:46;4.40;99.90
13944;DHT22;7044;53.286;8.534;2024-01-27T04:11:19;4.30;99.90
13944;DHT22;7044;53.286;8.534;2024-01-27T04:13:48;4.30;99.90
13944;DHT22;7044;53.286;8.534;2024-01-27T04:16:15;4.30;99.90
13944;DHT22;7044;53.286;8.534;2024-01-27T04:18:42;4.30;99.90
13944;DHT22;7044;53.286;8.534;2024-01-27T04:21:09;4.30;99.90
13944;DHT22;7044;53.286;8.534;2024-01-27T04:23:36;4.20;99.90
13944;DHT22;7044;53.286;8.534;2024-01-27T04:26:04;4.20;99.90
13944;DHT22;7044;53.286;8.534;2024-01-27T04:28:32;4.60;99.90
13944;DHT22;7044;53.286;8.534;2024-01-27T04:30:58;4.20;99.90
13944;DHT22;7044;53.286;8.534;2024-01-27T04:35:53;4.20;99.90
13944;DHT22;7044;53.286;8.534;2024-01-27T04:38:20;4.20;99.90
13944;DHT22;7044;53.286;8.534;2024-01-27T04:40:48;4.20;99.90
13944;DHT22;7044;53.286;8.534;2024-01-27T04:43:17;4.20;99.90
13944;DHT22;7044;53.286;8.534;2024-01-27T04:45:44;4.20;99.90
13944;DHT22;7044;53.286;8.534;2024-01-27T04:48:11;4.20;99.90
13944;DHT22;7044;53.286;8.534;2024-01-27T04:50:37;4.20;99.90
13944;DHT22;7044;53.286;8.534;2024-01-27T04:53:05;4.20;99.90
13944;DHT22;7044;53.286;8.534;2024-01-27T04:55:32;4.20;99.90
13944;DHT22;7044;53.286;8.534;2024-01-27T04:57:59;4.20;99.90
13944;DHT22;7044;53.286;8.534;2024-01-27T05:00:27;4.20;99.90
13944;DHT22;7044;53.286;8.534;2024-01-27T05:02:54;4.20;99.90
13944;DHT22;7044;53.286;8.534;2024-01-27T05:05:21;4.10;99.90
13944;DHT22;7044;53.286;8.534;2024-01-27T05:07:48;4.10;99.90
13944;DHT22;7044;53.286;8.534;2024-01-27T05:10:15;5.60;99.90
13944;DHT22;7044;53.286;8.534;2024-01-27T05:12:42;4.10;99.90
13944;DHT22;7044;53.286;8.534;2024-01-27T05:15:10;4.00;99.90
13944;DHT22;7044;53.286;8.534;2024-01-27T05:17:38;4.10;99.90
13944;DHT22;7044;53.286;8.534;2024-01-27T05:20:07;4.00;99.90
13944;DHT22;7044;53.286;8.534;2024-01-27T05:22:34;4.10;99.90
13944;DHT22;7044;53.286;8.534;2024-01-27T05:25:01;4.00;99.90
13944;DHT22;7044;53.286;8.534;2024-01-27T05:27:28;4.10;99.90
13944;DHT22;7044;53.286;8.534;2024-01-27T05:29:55;4.10;99.90
13944;DHT22;7044;53.286;8.534;2024-01-27T05:32:22;4.00;99.90
13944;DHT22;7044;53.286;8.534;2024-01-27T05:34:50;4.00;99.90
13944;DHT22;7044;53.286;8.534;2024-01-27T05:37:17;4.00;99.90
13944;DHT22;7044;53.286;8.534;2024-01-27T05:39:44;4.00;99.90
13944;DHT22;7044;53.286;8.534;2024-01-27T05:42:11;4.00;99.90
13944;DHT22;7044;53.286;8.534;2024-01-27T05:44:38;4.10;99.90
13944;DHT22;7044;53.286;8.534;2024-01-27T05:47:06;4.00;99.90
13944;DHT22;7044;53.286;8.534;2024-01-27T05:49:33;4.10;99.90
13944;DHT22;7044;53.286;8.534;2024-01-27T05:52:01;6.80;99.90
13944;DHT22;7044;53.286;8.534;2024-01-27T05:54:28;4.00;99.90
13944;DHT22;7044;53.286;8.534;2024-01-27T05:56:55;4.00;99.90
13944;DHT22;7044;53.286;8.534;2024-01-27T05:59:22;4.00;99.90
13944;DHT22;7044;53.286;8.534;2024-01-27T06:01:48;3.90;99.90
13944;DHT22;7044;53.286;8.534;2024-01-27T06:04:15;4.00;99.90
13944;DHT22;7044;53.286;8.534;2024-01-27T06:06:42;4.00;99.90
13944;DHT22;7044;53.286;8.534;2024-01-27T06:09:10;4.00;99.90
13944;DHT22;7044;53.286;8.534;2024-01-27T06:11:37;3.90;99.90
13944;DHT22;7044;53.286;8.534;2024-01-27T06:16:32;3.90;99.90
13944;DHT22;7044;53.286;8.534;2024-01-27T06:19:01;3.90;99.90
13944;DHT22;7044;53.286;8.534;2024-01-27T06:21:27;3.90;99.90
13944;DHT22;7044;53.286;8.534;2024-01-27T06:23:54;3.90;99.90
13944;DHT22;7044;53.286;8.534;2024-01-27T06:26:22;3.80;99.90
13944;DHT22;7044;53.286;8.534;2024-01-27T06:28:49;3.90;99.90
13944;DHT22;7044;53.286;8.534;2024-01-27T06:31:16;3.90;99.90
13944;DHT22;7044;53.286;8.534;2024-01-27T06:33:43;3.90;99.90
13944;DHT22;7044;53.286;8.534;2024-01-27T06:36:10;3.90;99.90
13944;DHT22;7044;53.286;8.534;2024-01-27T06:38:37;3.90;99.90
13944;DHT22;7044;53.286;8.534;2024-01-27T06:41:04;3.90;99.90
13944;DHT22;7044;53.286;8.534;2024-01-27T06:43:32;3.80;99.90
13944;DHT22;7044;53.286;8.534;2024-01-27T06:45:59;3.80;99.90
13944;DHT22;7044;53.286;8.534;2024-01-27T06:48:26;3.80;99.90
13944;DHT22;7044;53.286;8.534;2024-01-27T06:50:53;3.80;99.90
13944;DHT22;7044;53.286;8.534;2024-01-27T06:53:20;3.80;99.90
13944;DHT22;7044;53.286;8.534;2024-01-27T06:55:47;3.80;99.90
13944;DHT22;7044;53.286;8.534;2024-01-27T06:58:13;3.80;99.90
13944;DHT22;7044;53.286;8.534;2024-01-27T07:00:42;3.80;99.90
13944;DHT22;7044;53.286;8.534;2024-01-27T07:03:10;3.80;99.90
13944;DHT22;7044;53.286;8.534;2024-01-27T07:05:37;3.80;99.90
13944;DHT22;7044;53.286;8.534;2024-01-27T07:08:06;3.70;99.90
13944;DHT22;7044;53.286;8.534;2024-01-27T07:10:33;3.60;99.90
13944;DHT22;7044;53.286;8.534;2024-01-27T07:13:01;3.60;99.90
13944;DHT22;7044;53.286;8.534;2024-01-27T07:15:28;3.50;99.90
13944;DHT22;7044;53.286;8.534;2024-01-27T07:17:56;3.50;99.90
13944;DHT22;7044;53.286;8.534;2024-01-27T07:20:23;3.50;99.90
13944;DHT22;7044;53.286;8.534;2024-01-27T07:22:50;3.50;99.90
13944;DHT22;7044;53.286;8.534;2024-01-27T07:25:17;4.00;99.90
13944;DHT22;7044;53.286;8.534;2024-01-27T07:27:44;3.50;99.90
13944;DHT22;7044;53.286;8.534;2024-01-27T07:30:12;3.40;99.90
13944;DHT22;7044;53.286;8.534;2024-01-27T07:32:39;3.50;99.90
13944;DHT22;7044;53.286;8.534;2024-01-27T07:35:08;3.50;99.90
13944;DHT22;7044;53.286;8.534;2024-01-27T07:37:35;3.50;99.90
13944;DHT22;7044;53.286;8.534;2024-01-27T07:40:02;3.60;99.90
13944;DHT22;7044;53.286;8.534;2024-01-27T07:42:29;3.50;99.90
13944;DHT22;7044;53.286;8.534;2024-01-27T07:44:56;3.60;99.90
13944;DHT22;7044;53.286;8.534;2024-01-27T07:47:23;3.60;99.90
13944;DHT22;7044;53.286;8.534;2024-01-27T07:49:49;4.00;99.90
13944;DHT22;7044;53.286;8.534;2024-01-27T07:52:18;3.70;99.90
13944;DHT22;7044;53.286;8.534;2024-01-27T07:54:45;3.60;99.90
13944;DHT22;7044;53.286;8.534;2024-01-27T07:57:13;3.70;99.90
13944;DHT22;7044;53.286;8.534;2024-01-27T07:59:40;3.60;99.90
13944;DHT22;7044;53.286;8.534;2024-01-27T08:02:07;3.60;99.90
13944;DHT22;7044;53.286;8.534;2024-01-27T08:04:34;3.60;99.90
13944;DHT22;7044;53.286;8.534;2024-01-27T08:07:01;3.60;99.90
13944;DHT22;7044;53.286;8.534;2024-01-27T08:09:33;3.60;99.90
13944;DHT22;7044;53.286;8.534;2024-01-27T08:12:00;3.50;99.90
13944;DHT22;7044;53.286;8.534;2024-01-27T08:14:27;3.60;99.90
13944;DHT22;7044;53.286;8.534;2024-01-27T08:16:55;3.60;99.90
13944;DHT22;7044;53.286;8.534;2024-01-27T08:19:23;3.60;99.90
13944;DHT22;7044;53.286;8.534;2024-01-27T08:21:50;3.60;99.90
13944;DHT22;7044;53.286;8.534;2024-01-27T08:24:17;3.70;99.90
13944;DHT22;7044;53.286;8.534;2024-01-27T08:26:45;3.70;99.90
13944;DHT22;7044;53.286;8.534;2024-01-27T08:29:13;3.70;99.90
13944;DHT22;7044;53.286;8.534;2024-01-27T08:31:40;3.70;99.90
13944;DHT22;7044;53.286;8.534;2024-01-27T08:34:07;3.70;99.90
13944;DHT22;7044;53.286;8.534;2024-01-27T08:36:34;4.60;99.90
13944;DHT22;7044;53.286;8.534;2024-01-27T08:39:02;3.80;99.90
13944;DHT22;7044;53.286;8.534;2024-01-27T08:41:30;3.80;99.90
13944;DHT22;7044;53.286;8.534;2024-01-27T08:43:58;3.90;99.90
13944;DHT22;7044;53.286;8.534;2024-01-27T08:48:52;4.20;99.90
13944;DHT22;7044;53.286;8.534;2024-01-27T08:51:19;4.00;99.90
13944;DHT22;7044;53.286;8.534;2024-01-27T08:53:46;3.90;99.90
13944;DHT22;7044;53.286;8.534;2024-01-27T08:56:14;4.10;99.90
13944;DHT22;7044;53.286;8.534;2024-01-27T08:58:41;4.20;99.90
13944;DHT22;7044;53.286;8.534;2024-01-27T09:01:10;4.10;99.90
13944;DHT22;7044;53.286;8.534;2024-01-27T09:03:38;4.20;99.90
13944;DHT22;7044;53.286;8.534;2024-01-27T09:06:06;4.10;99.90
13944;DHT22;7044;53.286;8.534;2024-01-27T09:08:34;4.20;99.90
13944;DHT22;7044;53.286;8.534;2024-01-27T09:11:01;4.20;99.90
13944;DHT22;7044;53.286;8.534;2024-01-27T09:13:28;4.30;99.90
13944;DHT22;7044;53.286;8.534;2024-01-27T09:15:56;4.20;99.90
13944;DHT22;7044;53.286;8.534;2024-01-27T09:18:25;4.30;99.90
13944;DHT22;7044;53.286;8.534;2024-01-27T09:20:52;4.30;99.90
13944;DHT22;7044;53.286;8.534;2024-01-27T09:23:19;4.50;99.90
13944;DHT22;7044;53.286;8.534;2024-01-27T09:25:46;4.40;99.90
13944;DHT22;7044;53.286;8.534;2024-01-27T09:30:41;4.50;99.90
13944;DHT22;7044;53.286;8.534;2024-01-27T09:33:08;4.60;99.90
13944;DHT22;7044;53.286;8.534;2024-01-27T09:35:37;4.50;99.90
13944;DHT22;7044;53.286;8.534;2024-01-27T09:38:04;4.50;99.90
13944;DHT22;7044;53.286;8.534;2024-01-27T09:40:31;4.60;99.90
13944;DHT22;7044;53.286;8.534;2024-01-27T09:42:59;4.60;99.90
13944;DHT22;7044;53.286;8.534;2024-01-27T09:45:25;4.60;99.90
13944;DHT22;7044;53.286;8.534;2024-01-27T09:47:54;4.70;99.90
13944;DHT22;7044;53.286;8.534;2024-01-27T09:50:23;4.70;99.90
13944;DHT22;7044;53.286;8.534;2024-01-27T09:52:51;4.70;99.90
13944;DHT22;7044;53.286;8.534;2024-01-27T09:57:46;5.40;99.90
13944;DHT22;7044;53.286;8.534;2024-01-27T10:00:15;4.90;99.90
13944;DHT22;7044;53.286;8.534;2024-01-27T10:02:43;4.90;99.90
13944;DHT22;7044;53.286;8.534;2024-01-27T10:05:12;4.90;99.90
13944;DHT22;7044;53.286;8.534;2024-01-27T10:07:40;4.90;99.90
13944;DHT22;7044;53.286;8.534;2024-01-27T10:10:09;5.00;99.90
13944;DHT22;7044;53.286;8.534;2024-01-27T10:12:39;5.00;99.90
13944;DHT22;7044;53.286;8.534;2024-01-27T10:15:08;5.00;99.90
13944;DHT22;7044;53.286;8.534;2024-01-27T10:17:44;5.10;99.90
13944;DHT22;7044;53.286;8.534;2024-01-27T10:20:11;5.10;99.90
13944;DHT22;7044;53.286;8.534;2024-01-27T10:22:41;5.20;99.90
13944;DHT22;7044;53.286;8.534;2024-01-27T10:25:10;5.20;99.90
13944;DHT22;7044;53.286;8.534;2024-01-27T10:27:37;5.20;99.90
13944;DHT22;7044;53.286;8.534;2024-01-27T10:30:05;5.30;99.90
13944;DHT22;7044;53.286;8.534;2024-01-27T10:32:33;5.40;99.90
13944;DHT22;7044;53.286;8.534;2024-01-27T10:35:04;5.10;99.90
13944;DHT22;7044;53.286;8.534;2024-01-27T10:37:31;5.50;99.90
13944;DHT22;7044;53.286;8.534;2024-01-27T10:40:01;5.50;99.90
13944;DHT22;7044;53.286;8.534;2024-01-27T10:42:30;5.50;99.90
13944;DHT22;7044;53.286;8.534;2024-01-27T10:44:58;5.60;99.90
13944;DHT22;7044;53.286;8.534;2024-01-27T10:47:27;5.60;99.90
13944;DHT22;7044;53.286;8.534;2024-01-27T10:49:55;5.60;99.90
13944;DHT22;7044;53.286;8.534;2024-01-27T10:52:23;5.70;99.90
13944;DHT22;7044;53.286;8.534;2024-01-27T10:54:55;5.60;99.90
13944;DHT22;7044;53.286;8.534;2024-01-27T10:57:25;5.70;99.90
13944;DHT22;7044;53.286;8.534;2024-01-27T10:59:54;5.80;99.90
13944;DHT22;7044;53.286;8.534;2024-01-27T11:02:22;5.80;99.90
13944;DHT22;7044;53.286;8.534;2024-01-27T11:04:51;5.80;99.90
13944;DHT22;7044;53.286;8.534;2024-01-27T11:07:19;5.90;99.90
13944;DHT22;7044;53.286;8.534;2024-01-27T11:09:49;5.90;99.90
13944;DHT22;7044;53.286;8.534;2024-01-27T11:12:18;6.00;99.90
13944;DHT22;7044;53.286;8.534;2024-01-27T11:14:46;6.80;99.90
13944;DHT22;7044;53.286;8.534;2024-01-27T11:17:15;6.00;99.90
13944;DHT22;7044;53.286;8.534;2024-01-27T11:19:42;6.00;99.90
13944;DHT22;7044;53.286;8.534;2024-01-27T11:22:23;6.10;99.90
13944;DHT22;7044;53.286;8.534;2024-01-27T11:24:51;6.10;99.90
13944;DHT22;7044;53.286;8.534;2024-01-27T11:27:18;6.10;99.90
13944;DHT22;7044;53.286;8.534;2024-01-27T11:29:47;6.10;99.90
13944;DHT22;7044;53.286;8.534;2024-01-27T11:32:15;6.10;99.90
13944;DHT22;7044;53.286;8.534;2024-01-27T11:34:43;6.20;99.90
13944;DHT22;7044;53.286;8.534;2024-01-27T11:37:12;5.70;99.90
13944;DHT22;7044;53.286;8.534;2024-01-27T11:39:39;6.30;99.90
13944;DHT22;7044;53.286;8.534;2024-01-27T11:42:07;6.60;99.90
13944;DHT22;7044;53.286;8.534;2024-01-27T11:44:35;5.00;99.90
13944;DHT22;7044;53.286;8.534;2024-01-27T11:47:02;6.40;99.90
13944;DHT22;7044;53.286;8.534;2024-01-27T11:49:30;6.40;99.90
13944;DHT22;7044;53.286;8.534;2024-01-27T11:51:57;6.40;99.90
13944;DHT22;7044;53.286;8.534;2024-01-27T11:54:24;6.90;99.90
13944;DHT22;7044;53.286;8.534;2024-01-27T11:56:51;6.40;99.90
13944;DHT22;7044;53.286;8.534;2024-01-27T11:59:18;6.50;99.90
13944;DHT22;7044;53.286;8.534;2024-01-27T12:01:45;6.50;99.90
13944;DHT22;7044;53.286;8.534;2024-01-27T12:04:11;6.50;99.90
13944;DHT22;7044;53.286;8.534;2024-01-27T12:06:41;6.60;99.90
13944;DHT22;7044;53.286;8.534;2024-01-27T12:09:08;6.60;99.90
13944;DHT22;7044;53.286;8.534;2024-01-27T12:11:38;6.10;99.90
13944;DHT22;7044;53.286;8.534;2024-01-27T12:14:06;6.60;99.90
13944;DHT22;7044;53.286;8.534;2024-01-27T12:16:34;6.60;99.90
13944;DHT22;7044;53.286;8.534;2024-01-27T12:19:01;6.60;99.90
13944;DHT22;7044;53.286;8.534;2024-01-27T12:21:28;6.70;99.90
13944;DHT22;7044;53.286;8.534;2024-01-27T12:23:57;6.70;99.90
13944;DHT22;7044;53.286;8.534;2024-01-27T12:26:25;6.70;99.90
13944;DHT22;7044;53.286;8.534;2024-01-27T12:28:54;6.80;99.90
13944;DHT22;7044;53.286;8.534;2024-01-27T12:31:22;6.80;99.90
13944;DHT22;7044;53.286;8.534;2024-01-27T12:33:50;6.80;99.90
13944;DHT22;7044;53.286;8.534;2024-01-27T12:36:18;6.80;99.90
13944;DHT22;7044;53.286;8.534;2024-01-27T12:38:58;6.90;99.90
13944;DHT22;7044;53.286;8.534;2024-01-27T12:41:25;6.90;99.90
13944;DHT22;7044;53.286;8.534;2024-01-27T12:43:52;6.90;99.90
13944;DHT22;7044;53.286;8.534;2024-01-27T12:46:19;6.90;99.90
13944;DHT22;7044;53.286;8.534;2024-01-27T12:48:46;6.90;99.90
13944;DHT22;7044;53.286;8.534;2024-01-27T12:51:13;7.00;99.90
13944;DHT22;7044;53.286;8.534;2024-01-27T12:53:41;6.70;99.90
13944;DHT22;7044;53.286;8.534;2024-01-27T12:56:11;7.00;99.90
13944;DHT22;7044;53.286;8.534;2024-01-27T12:58:38;7.00;99.90
13944;DHT22;7044;53.286;8.534;2024-01-27T13:01:05;7.00;99.90
13944;DHT22;7044;53.286;8.534;2024-01-27T13:03:33;7.10;99.90
13944;DHT22;7044;53.286;8.534;2024-01-27T13:06:00;7.10;99.90
13944;DHT22;7044;53.286;8.534;2024-01-27T13:08:28;7.10;99.90
13944;DHT22;7044;53.286;8.534;2024-01-27T13:10:55;7.20;99.90
13944;DHT22;7044;53.286;8.534;2024-01-27T13:13:23;7.20;99.90
13944;DHT22;7044;53.286;8.534;2024-01-27T13:15:50;7.20;99.90
13944;DHT22;7044;53.286;8.534;2024-01-27T13:18:17;7.20;99.90
13944;DHT22;7044;53.286;8.534;2024-01-27T13:20:44;7.20;99.90
13944;DHT22;7044;53.286;8.534;2024-01-27T13:23:11;7.20;99.90
13944;DHT22;7044;53.286;8.534;2024-01-27T13:25:37;7.20;99.90
13944;DHT22;7044;53.286;8.534;2024-01-27T13:28:05;7.20;99.90
13944;DHT22;7044;53.286;8.534;2024-01-27T13:30:34;7.20;99.90
13944;DHT22;7044;53.286;8.534;2024-01-27T13:33:01;7.20;99.90
13944;DHT22;7044;53.286;8.534;2024-01-27T13:35:28;7.20;99.90
13944;DHT22;7044;53.286;8.534;2024-01-27T13:37:55;7.20;99.90
13944;DHT22;7044;53.286;8.534;2024-01-27T13:42:49;7.20;99.90
13944;DHT22;7044;53.286;8.534;2024-01-27T13:45:16;7.20;99.90
13944;DHT22;7044;53.286;8.534;2024-01-27T13:47:44;7.20;99.90
13944;DHT22;7044;53.286;8.534;2024-01-27T13:50:11;7.20;99.90
13944;DHT22;7044;53.286;8.534;2024-01-27T13:52:38;7.20;99.90
13944;DHT22;7044;53.286;8.534;2024-01-27T13:55:07;7.30;99.90
13944;DHT22;7044;53.286;8.534;2024-01-27T13:57:34;7.30;99.90
13944;DHT22;7044;53.286;8.534;2024-01-27T14:00:01;7.30;99.90
13944;DHT22;7044;53.286;8.534;2024-01-27T14:02:29;7.30;99.90
13944;DHT22;7044;53.286;8.534;2024-01-27T14:04:57;6.80;99.90
13944;DHT22;7044;53.286;8.534;2024-01-27T14:07:24;7.20;99.90
13944;DHT22;7044;53.286;8.534;2024-01-27T14:09:51;7.00;99.90
13944;DHT22;7044;53.286;8.534;2024-01-27T14:12:18;7.40;99.90
13944;DHT22;7044;53.286;8.534;2024-01-27T14:14:45;7.30;99.90
13944;DHT22;7044;53.286;8.534;2024-01-27T14:17:12;7.30;99.90
13944;DHT22;7044;53.286;8.534;2024-01-27T14:19:39;7.30;99.90
13944;DHT22;7044;53.286;8.534;2024-01-27T14:22:07;7.30;99.90
13944;DHT22;7044;53.286;8.534;2024-01-27T14:24:34;7.30;99.90
13944;DHT22;7044;53.286;8.534;2024-01-27T14:27:01;7.30;99.90
13944;DHT22;7044;53.286;8.534;2024-01-27T14:29:30;7.70;99.90
13944;DHT22;7044;53.286;8.534;2024-01-27T14:31:57;7.50;99.90
13944;DHT22;7044;53.286;8.534;2024-01-27T14:34:24;7.60;99.90
13944;DHT22;7044;53.286;8.534;2024-01-27T14:36:52;7.30;99.90
13944;DHT22;7044;53.286;8.534;2024-01-27T14:39:21;7.30;99.90
13944;DHT22;7044;53.286;8.534;2024-01-27T14:41:48;7.30;99.90
13944;DHT22;7044;53.286;8.534;2024-01-27T14:44:15;7.30;99.90
13944;DHT22;7044;53.286;8.534;2024-01-27T14:46:42;7.30;99.90
13944;DHT22;7044;53.286;8.534;2024-01-27T14:49:09;7.30;99.90
13944;DHT22;7044;53.286;8.534;2024-01-27T14:51:36;7.20;99.90
13944;DHT22;7044;53.286;8.534;2024-01-27T14:54:03;7.20;99.90
13944;DHT22;7044;53.286;8.534;2024-01-27T14:56:32;7.20;99.90
13944;DHT22;7044;53.286;8.534;2024-01-27T14:58:59;7.10;99.90
13944;DHT22;7044;53.286;8.534;2024-01-27T15:01:26;7.00;99.90
13944;DHT22;7044;53.286;8.534;2024-01-27T15:03:53;7.00;99.90
13944;DHT22;7044;53.286;8.534;2024-01-27T15:06:20;7.00;99.90
13944;DHT22;7044;53.286;8.534;2024-01-27T15:08:47;7.00;99.90
13944;DHT22;7044;53.286;8.534;2024-01-27T15:11:14;7.00;99.90
13944;DHT22;7044;53.286;8.534;2024-01-27T15:13:42;6.90;99.90
13944;DHT22;7044;53.286;8.534;2024-01-27T15:16:09;6.90;99.90
13944;DHT22;7044;53.286;8.534;2024-01-27T15:18:37;6.90;99.90
13944;DHT22;7044;53.286;8.534;2024-01-27T15:21:06;6.90;99.90
13944;DHT22;7044;53.286;8.534;2024-01-27T15:23:33;6.90;99.90
13944;DHT22;7044;53.286;8.534;2024-01-27T15:26:02;6.80;99.90
13944;DHT22;7044;53.286;8.534;2024-01-27T15:28:31;7.10;99.90
13944;DHT22;7044;53.286;8.534;2024-01-27T15:30:59;6.70;99.90
13944;DHT22;7044;53.286;8.534;2024-01-27T15:33:26;6.70;99.90
13944;DHT22;7044;53.286;8.534;2024-01-27T15:35:53;6.70;99.90
13944;DHT22;7044;53.286;8.534;2024-01-27T15:38:20;6.60;99.90
13944;DHT22;7044;53.286;8.534;2024-01-27T15:40:47;6.60;99.90
13944;DHT22;7044;53.286;8.534;2024-01-27T15:43:14;6.60;99.90
13944;DHT22;7044;53.286;8.534;2024-01-27T15:45:41;6.50;99.90
13944;DHT22;7044;53.286;8.534;2024-01-27T15:48:09;6.40;99.90
13944;DHT22;7044;53.286;8.534;2024-01-27T15:50:37;6.50;99.90
13944;DHT22;7044;53.286;8.534;2024-01-27T15:53:04;6.40;99.90
13944;DHT22;7044;53.286;8.534;2024-01-27T15:55:32;6.40;99.90
13944;DHT22;7044;53.286;8.534;2024-01-27T15:57:59;6.30;99.90
13944;DHT22;7044;53.286;8.534;2024-01-27T16:00:26;6.30;99.90
13944;DHT22;7044;53.286;8.534;2024-01-27T16:02:53;6.30;99.90
13944;DHT22;7044;53.286;8.534;2024-01-27T16:05:22;6.30;99.90
13944;DHT22;7044;53.286;8.534;2024-01-27T16:07:49;6.20;99.90
13944;DHT22;7044;53.286;8.534;2024-01-27T16:10:16;6.30;99.90
13944;DHT22;7044;53.286;8.534;2024-01-27T16:12:42;6.30;99.90
13944;DHT22;7044;53.286;8.534;2024-01-27T16:15:10;6.40;99.90
13944;DHT22;7044;53.286;8.534;2024-01-27T16:17:38;6.30;99.90
13944;DHT22;7044;53.286;8.534;2024-01-27T16:20:06;6.30;99.90
13944;DHT22;7044;53.286;8.534;2024-01-27T16:22:35;6.20;99.90